Terminal Aerodrome Forecast
Issued by NWS Burlington, VT

Home | Current Version | Previous Version | Text Only | Print | Product List | Glossary On
Versions: 1 2 3 4 5 6 7 8 9 10 11 12 13 14 15
000
FTUS41 KBTV 030534
TAFBTV
TAF
KBTV 030534Z 0306/0406 VRB04KT P6SM FEW250
     FM031200 17008KT P6SM SCT045 BKN080
     FM032200 17011G20KT 4SM -SHSN BR SCT015 OVC030
     FM040100 17012G22KT 2SM -SN BR SCT010 BKN018 OVC025
     FM040400 17019G28KT 3SM -SHSN BR SCT020 OVC030=

USA.gov is the U.S. government's official web portal to all federal, state and local government web resources and services.